Seamaster — ZMV7638 — position and weather

sailwx.info

Track history (hours):
 
Tides and Currents Weather Stations Pressure Air Temp Water Temp Dewpoint Dewpoint Depression Visibility Wind Speed Wind Dir Waves Ship Positions

Seamaster

Last reported at 2014-Nov-26 01:32 UTC. Time now 2014-Nov-26 07:49 UTC.
Position S 36°43' E 175°01'.

Length 44 m.

Type: Passenger vessel. MMSI: 512001027.

Date/timePositionNaut miles runAvg speedWind from/ knotsBaromVisibWave heightAir tempDewpointWater temp
2014-Nov-26 01:32S 36°43' E 175°01'10 9.4
2014-Nov-26 00:28S 36°51' E 174°54'2 0.3
2014-Nov-25 19:33S 36°53' E 174°54'2 0.8
2014-Nov-25 17:26S 36°51' E 174°54'2 2.2
2014-Nov-25 16:32S 36°53' E 174°54'0 0.0
2014-Nov-25 15:32S 36°53' E 174°54'1 0.1
2014-Nov-25 04:33S 36°52' E 174°54'2 0.8
2014-Nov-25 02:24S 36°50' E 174°53'2 2.2
2014-Nov-25 01:33S 36°52' E 174°54'0 0.2
2014-Nov-24 23:14S 36°51' E 174°54'1 1.0
2014-Nov-24 22:27S 36°52' E 174°54'1 0.6
2014-Nov-24 20:16S 36°51' E 174°54'1 1.4
2014-Nov-24 19:25S 36°52' E 174°54'0 0.0
2014-Nov-23 04:24S 36°52' E 174°54'0 0.1
2014-Nov-23 01:32S 36°52' E 174°54'0 0.1
2014-Nov-22 22:28S 36°52' E 174°54'3 1.3
2014-Nov-22 20:30S 36°50' E 174°56'3 2.5
2014-Nov-22 19:28S 36°52' E 174°54'1 0.5
2014-Nov-22 17:14S 36°51' E 174°54'1 0.0
2014-Nov-22 04:22S 36°52' E 174°54'1 0.4
2014-Nov-22 02:17S 36°51' E 174°54'1 1.6
2014-Nov-22 01:31S 36°52' E 174°54'3 1.6
2014-Nov-21 23:33S 36°50' E 174°57'3 2.8
2014-Nov-21 22:24S 36°52' E 174°54'0 0.0
2014-Nov-21 19:22S 36°52' E 174°54'1 0.1
2014-Nov-21 09:28S 36°51' E 174°54'8 8.5
2014-Nov-21 08:32S 36°44' E 174°60'6 0.6
2014-Nov-20 22:33S 36°49' E 174°55'3 0.9
2014-Nov-20 19:24S 36°52' E 174°54'1 0.5
2014-Nov-20 17:15S 36°51' E 174°54'2 2.2
2014-Nov-20 16:29S 36°53' E 174°54'1 0.1
2014-Nov-20 04:27S 36°52' E 174°54'1 0.4
2014-Nov-20 02:17S 36°51' E 174°54'1 0.7
2014-Nov-20 01:27S 36°52' E 174°54'0 0.0
2014-Nov-19 22:24S 36°52' E 174°54'3 0.2
2014-Nov-19 05:33S 36°48' E 174°54'2 1.9
2014-Nov-19 04:18S 36°51' E 174°54'3 0.5
2014-Nov-18 21:33S 36°47' E 174°54'4 0.8
2014-Nov-18 17:18S 36°51' E 174°54'0 0.0
2014-Nov-18 06:27S 36°51' E 174°54'1 0.6
2014-Nov-18 04:19S 36°52' E 174°54'1 0.7
2014-Nov-18 02:22S 36°51' E 174°54'1 1.6
2014-Nov-18 01:33S 36°52' E 174°54'3 1.3
2014-Nov-17 23:31S 36°50' E 174°56'3 2.6
2014-Nov-17 22:31S 36°52' E 174°54'3 1.3
2014-Nov-17 20:33S 36°50' E 174°56'3 2.3
2014-Nov-17 19:26S 36°52' E 174°54'1 0.1
2014-Nov-17 04:13S 36°51' E 174°54'1 0.4
2014-Nov-17 02:12S 36°51' E 174°54'1 0.7
2014-Nov-17 01:27S 36°52' E 174°54'0 0.0
2014-Nov-16 22:28S 36°52' E 174°54'1 0.2
2014-Nov-16 20:11S 36°51' E 174°54'0 0.1
2014-Nov-16 19:18S 36°51' E 174°54'0 0.1
2014-Nov-16 17:12S 36°51' E 174°53'  
Track history (hours):
 
Tides and Currents Weather Stations Pressure Air Temp Water Temp Dewpoint Dewpoint Depression Visibility Wind Speed Wind Dir Waves Ship Positions

Seamaster

Last reported at 2014-Nov-26 01:32 UTC. Time now 2014-Nov-26 07:49 UTC.
Position S 36°43' E 175°01'.

Length 44 m.

Type: Passenger vessel. MMSI: 512001027.

Date/timePositionNaut miles runAvg speedWind from/ knotsBaromVisibWave heightAir tempDewpointWater temp
2014-Nov-26 01:32S 36°43' E 175°01'10 9.4
2014-Nov-26 00:28S 36°51' E 174°54'2 0.3
2014-Nov-25 19:33S 36°53' E 174°54'2 0.8
2014-Nov-25 17:26S 36°51' E 174°54'2 2.2
2014-Nov-25 16:32S 36°53' E 174°54'0 0.0
2014-Nov-25 15:32S 36°53' E 174°54'1 0.1
2014-Nov-25 04:33S 36°52' E 174°54'2 0.8
2014-Nov-25 02:24S 36°50' E 174°53'2 2.2
2014-Nov-25 01:33S 36°52' E 174°54'0 0.2
2014-Nov-24 23:14S 36°51' E 174°54'1 1.0
2014-Nov-24 22:27S 36°52' E 174°54'1 0.6
2014-Nov-24 20:16S 36°51' E 174°54'1 1.4
2014-Nov-24 19:25S 36°52' E 174°54'0 0.0
2014-Nov-23 04:24S 36°52' E 174°54'0 0.1
2014-Nov-23 01:32S 36°52' E 174°54'0 0.1
2014-Nov-22 22:28S 36°52' E 174°54'3 1.3
2014-Nov-22 20:30S 36°50' E 174°56'3 2.5
2014-Nov-22 19:28S 36°52' E 174°54'1 0.5
2014-Nov-22 17:14S 36°51' E 174°54'1 0.0
2014-Nov-22 04:22S 36°52' E 174°54'1 0.4
2014-Nov-22 02:17S 36°51' E 174°54'1 1.6
2014-Nov-22 01:31S 36°52' E 174°54'3 1.6
2014-Nov-21 23:33S 36°50' E 174°57'3 2.8
2014-Nov-21 22:24S 36°52' E 174°54'0 0.0
2014-Nov-21 19:22S 36°52' E 174°54'1 0.1
2014-Nov-21 09:28S 36°51' E 174°54'8 8.5
2014-Nov-21 08:32S 36°44' E 174°60'6 0.6
2014-Nov-20 22:33S 36°49' E 174°55'3 0.9
2014-Nov-20 19:24S 36°52' E 174°54'1 0.5
2014-Nov-20 17:15S 36°51' E 174°54'2 2.2
2014-Nov-20 16:29S 36°53' E 174°54'1 0.1
2014-Nov-20 04:27S 36°52' E 174°54'1 0.4
2014-Nov-20 02:17S 36°51' E 174°54'1 0.7
2014-Nov-20 01:27S 36°52' E 174°54'0 0.0
2014-Nov-19 22:24S 36°52' E 174°54'3 0.2
2014-Nov-19 05:33S 36°48' E 174°54'2 1.9
2014-Nov-19 04:18S 36°51' E 174°54'3 0.5
2014-Nov-18 21:33S 36°47' E 174°54'4 0.8
2014-Nov-18 17:18S 36°51' E 174°54'0 0.0
2014-Nov-18 06:27S 36°51' E 174°54'1 0.6
2014-Nov-18 04:19S 36°52' E 174°54'1 0.7
2014-Nov-18 02:22S 36°51' E 174°54'1 1.6
2014-Nov-18 01:33S 36°52' E 174°54'3 1.3
2014-Nov-17 23:31S 36°50' E 174°56'3 2.6
2014-Nov-17 22:31S 36°52' E 174°54'3 1.3
2014-Nov-17 20:33S 36°50' E 174°56'3 2.3
2014-Nov-17 19:26S 36°52' E 174°54'1 0.1
2014-Nov-17 04:13S 36°51' E 174°54'1 0.4
2014-Nov-17 02:12S 36°51' E 174°54'1 0.7
2014-Nov-17 01:27S 36°52' E 174°54'0 0.0
2014-Nov-16 22:28S 36°52' E 174°54'1 0.2
2014-Nov-16 20:11S 36°51' E 174°54'0 0.1
2014-Nov-16 19:18S 36°51' E 174°54'0 0.1
2014-Nov-16 17:12S 36°51' E 174°53'  

Dump ship's entire track history